Terminal Aerodrome Forecast
Issued by NWS

Home | Current Version | Previous Version | Text Only | Print | Product List | Glossary On
Versions: 1 2 3 4 5 6 7 8 9 10 11 12 13 14 15
000
FTUS45 KABQ 271100
TAFLVS
TAF
KLVS 271120Z 2712/2812 06006KT P6SM FEW250
     FM271900 19013G23KT P6SM SCT100
     FM280100 23007KT P6SM SKC
     FM280700 01006KT P6SM SKC=

USA.gov is the U.S. government's official web portal to all federal, state and local government web resources and services.